sensor_id;sensor_type;location;lat;lon;timestamp;P1;durP1;ratioP1;P2;durP2;ratioP2
11048;SDS011;5577;42.706;23.160;2023-05-10T00:02:25;9.10;;;7.90;;
11048;SDS011;5577;42.706;23.160;2023-05-10T00:05:10;9.30;;;7.90;;
11048;SDS011;5577;42.706;23.160;2023-05-10T00:07:54;12.63;;;8.40;;
11048;SDS011;5577;42.706;23.160;2023-05-10T00:10:38;11.57;;;8.20;;
11048;SDS011;5577;42.706;23.160;2023-05-10T00:13:22;10.73;;;7.90;;
11048;SDS011;5577;42.706;23.160;2023-05-10T00:16:06;12.00;;;8.17;;
11048;SDS011;5577;42.706;23.160;2023-05-10T00:18:49;11.33;;;8.43;;
11048;SDS011;5577;42.706;23.160;2023-05-10T00:21:33;12.27;;;8.60;;
11048;SDS011;5577;42.706;23.160;2023-05-10T00:24:17;11.03;;;8.60;;
11048;SDS011;5577;42.706;23.160;2023-05-10T00:27:01;11.83;;;9.07;;
11048;SDS011;5577;42.706;23.160;2023-05-10T00:29:47;11.30;;;8.90;;
11048;SDS011;5577;42.706;23.160;2023-05-10T00:32:31;13.87;;;9.43;;
11048;SDS011;5577;42.706;23.160;2023-05-10T00:35:15;11.77;;;9.37;;
11048;SDS011;5577;42.706;23.160;2023-05-10T00:37:59;12.10;;;8.90;;
11048;SDS011;5577;42.706;23.160;2023-05-10T00:40:43;12.50;;;9.47;;
11048;SDS011;5577;42.706;23.160;2023-05-10T00:43:28;12.07;;;9.40;;
11048;SDS011;5577;42.706;23.160;2023-05-10T00:46:12;10.97;;;9.13;;
11048;SDS011;5577;42.706;23.160;2023-05-10T00:48:59;12.80;;;9.13;;
11048;SDS011;5577;42.706;23.160;2023-05-10T00:51:43;12.47;;;9.90;;
11048;SDS011;5577;42.706;23.160;2023-05-10T00:54:28;10.20;;;8.30;;
11048;SDS011;5577;42.706;23.160;2023-05-10T00:57:13;13.60;;;10.07;;
11048;SDS011;5577;42.706;23.160;2023-05-10T00:59:57;12.83;;;10.40;;
11048;SDS011;5577;42.706;23.160;2023-05-10T01:02:42;12.40;;;9.93;;
11048;SDS011;5577;42.706;23.160;2023-05-10T01:05:26;13.13;;;10.07;;
11048;SDS011;5577;42.706;23.160;2023-05-10T01:08:10;12.17;;;10.27;;
11048;SDS011;5577;42.706;23.160;2023-05-10T01:10:54;13.43;;;10.37;;
11048;SDS011;5577;42.706;23.160;2023-05-10T01:13:40;13.00;;;10.13;;
11048;SDS011;5577;42.706;23.160;2023-05-10T01:16:25;12.50;;;10.70;;
11048;SDS011;5577;42.706;23.160;2023-05-10T01:19:22;13.47;;;10.30;;
11048;SDS011;5577;42.706;23.160;2023-05-10T01:28:39;13.33;;;11.60;;
11048;SDS011;5577;42.706;23.160;2023-05-10T01:34:53;13.57;;;11.00;;
11048;SDS011;5577;42.706;23.160;2023-05-10T01:37:49;11.47;;;10.20;;
11048;SDS011;5577;42.706;23.160;2023-05-10T01:40:42;12.40;;;10.67;;
11048;SDS011;5577;42.706;23.160;2023-05-10T01:43:30;13.43;;;11.20;;
11048;SDS011;5577;42.706;23.160;2023-05-10T01:46:36;13.00;;;11.07;;
11048;SDS011;5577;42.706;23.160;2023-05-10T01:49:25;13.30;;;11.27;;
11048;SDS011;5577;42.706;23.160;2023-05-10T01:52:14;14.20;;;11.07;;
11048;SDS011;5577;42.706;23.160;2023-05-10T01:55:04;12.87;;;10.53;;
11048;SDS011;5577;42.706;23.160;2023-05-10T01:57:51;11.83;;;10.27;;
11048;SDS011;5577;42.706;23.160;2023-05-10T02:00:43;11.73;;;10.20;;
11048;SDS011;5577;42.706;23.160;2023-05-10T02:03:29;12.50;;;10.53;;
11048;SDS011;5577;42.706;23.160;2023-05-10T02:06:16;11.97;;;10.07;;
11048;SDS011;5577;42.706;23.160;2023-05-10T02:09:03;10.93;;;9.27;;
11048;SDS011;5577;42.706;23.160;2023-05-10T02:11:49;10.53;;;9.20;;
11048;SDS011;5577;42.706;23.160;2023-05-10T02:14:34;10.60;;;9.50;;
11048;SDS011;5577;42.706;23.160;2023-05-10T02:17:20;10.97;;;9.47;;
11048;SDS011;5577;42.706;23.160;2023-05-10T02:20:05;9.47;;;8.27;;
11048;SDS011;5577;42.706;23.160;2023-05-10T02:22:54;10.07;;;7.53;;
11048;SDS011;5577;42.706;23.160;2023-05-10T02:25:41;8.50;;;7.70;;
11048;SDS011;5577;42.706;23.160;2023-05-10T02:28:27;8.43;;;7.53;;
11048;SDS011;5577;42.706;23.160;2023-05-10T02:31:11;9.67;;;7.70;;
11048;SDS011;5577;42.706;23.160;2023-05-10T02:33:56;8.10;;;7.30;;
11048;SDS011;5577;42.706;23.160;2023-05-10T02:36:41;8.37;;;7.27;;
11048;SDS011;5577;42.706;23.160;2023-05-10T02:39:26;8.63;;;6.77;;
11048;SDS011;5577;42.706;23.160;2023-05-10T02:42:12;7.67;;;6.70;;
11048;SDS011;5577;42.706;23.160;2023-05-10T02:45:01;8.03;;;7.23;;
11048;SDS011;5577;42.706;23.160;2023-05-10T02:47:48;7.50;;;6.70;;
11048;SDS011;5577;42.706;23.160;2023-05-10T02:50:33;7.60;;;6.80;;
11048;SDS011;5577;42.706;23.160;2023-05-10T02:53:21;7.30;;;6.60;;
11048;SDS011;5577;42.706;23.160;2023-05-10T02:56:53;7.60;;;6.80;;
11048;SDS011;5577;42.706;23.160;2023-05-10T02:59:16;7.10;;;6.20;;
11048;SDS011;5577;42.706;23.160;2023-05-10T03:02:00;6.90;;;6.20;;
11048;SDS011;5577;42.706;23.160;2023-05-10T03:04:45;7.30;;;6.40;;
11048;SDS011;5577;42.706;23.160;2023-05-10T03:07:29;7.97;;;6.57;;
11048;SDS011;5577;42.706;23.160;2023-05-10T03:10:13;9.73;;;6.50;;
11048;SDS011;5577;42.706;23.160;2023-05-10T03:13:10;9.93;;;6.83;;
11048;SDS011;5577;42.706;23.160;2023-05-10T03:16:08;7.33;;;6.53;;
11048;SDS011;5577;42.706;23.160;2023-05-10T03:19:02;9.43;;;7.00;;
11048;SDS011;5577;42.706;23.160;2023-05-10T03:21:55;7.93;;;6.50;;
11048;SDS011;5577;42.706;23.160;2023-05-10T03:24:47;8.77;;;6.93;;
11048;SDS011;5577;42.706;23.160;2023-05-10T03:27:33;8.43;;;7.13;;
11048;SDS011;5577;42.706;23.160;2023-05-10T03:30:19;9.27;;;7.20;;
11048;SDS011;5577;42.706;23.160;2023-05-10T03:33:06;8.17;;;7.20;;
11048;SDS011;5577;42.706;23.160;2023-05-10T03:35:51;8.77;;;7.20;;
11048;SDS011;5577;42.706;23.160;2023-05-10T03:38:35;8.87;;;7.23;;
11048;SDS011;5577;42.706;23.160;2023-05-10T03:41:19;10.20;;;7.83;;
11048;SDS011;5577;42.706;23.160;2023-05-10T03:44:03;11.30;;;7.67;;
11048;SDS011;5577;42.706;23.160;2023-05-10T03:46:47;9.80;;;7.30;;
11048;SDS011;5577;42.706;23.160;2023-05-10T03:49:32;8.60;;;7.67;;
11048;SDS011;5577;42.706;23.160;2023-05-10T03:52:16;8.60;;;6.93;;
11048;SDS011;5577;42.706;23.160;2023-05-10T03:55:00;8.57;;;7.17;;
11048;SDS011;5577;42.706;23.160;2023-05-10T03:57:46;9.13;;;7.67;;
11048;SDS011;5577;42.706;23.160;2023-05-10T04:00:33;9.10;;;7.00;;
11048;SDS011;5577;42.706;23.160;2023-05-10T04:03:17;9.53;;;7.53;;
11048;SDS011;5577;42.706;23.160;2023-05-10T04:06:01;9.13;;;7.37;;
11048;SDS011;5577;42.706;23.160;2023-05-10T04:08:45;9.07;;;7.70;;
11048;SDS011;5577;42.706;23.160;2023-05-10T04:11:29;9.33;;;7.53;;
11048;SDS011;5577;42.706;23.160;2023-05-10T04:14:14;8.77;;;7.33;;
11048;SDS011;5577;42.706;23.160;2023-05-10T04:16:58;9.70;;;7.33;;
11048;SDS011;5577;42.706;23.160;2023-05-10T04:19:41;8.53;;;7.30;;
11048;SDS011;5577;42.706;23.160;2023-05-10T04:22:25;10.47;;;7.70;;
11048;SDS011;5577;42.706;23.160;2023-05-10T04:25:11;8.73;;;7.60;;
11048;SDS011;5577;42.706;23.160;2023-05-10T04:27:55;8.67;;;7.77;;
11048;SDS011;5577;42.706;23.160;2023-05-10T04:30:39;10.13;;;8.10;;
11048;SDS011;5577;42.706;23.160;2023-05-10T04:33:24;10.87;;;8.17;;
11048;SDS011;5577;42.706;23.160;2023-05-10T04:36:07;10.47;;;6.97;;
11048;SDS011;5577;42.706;23.160;2023-05-10T04:38:52;9.53;;;7.83;;
11048;SDS011;5577;42.706;23.160;2023-05-10T04:41:37;9.27;;;7.53;;
11048;SDS011;5577;42.706;23.160;2023-05-10T04:44:21;11.37;;;7.17;;
11048;SDS011;5577;42.706;23.160;2023-05-10T04:47:05;9.57;;;7.80;;
11048;SDS011;5577;42.706;23.160;2023-05-10T04:49:49;10.43;;;8.23;;
11048;SDS011;5577;42.706;23.160;2023-05-10T04:52:33;10.87;;;8.73;;
11048;SDS011;5577;42.706;23.160;2023-05-10T04:55:17;11.80;;;8.47;;
11048;SDS011;5577;42.706;23.160;2023-05-10T04:58:01;10.23;;;8.00;;
11048;SDS011;5577;42.706;23.160;2023-05-10T05:00:46;13.10;;;8.83;;
11048;SDS011;5577;42.706;23.160;2023-05-10T05:03:30;10.87;;;8.30;;
11048;SDS011;5577;42.706;23.160;2023-05-10T05:06:14;11.27;;;8.70;;
11048;SDS011;5577;42.706;23.160;2023-05-10T05:08:58;10.77;;;8.33;;
11048;SDS011;5577;42.706;23.160;2023-05-10T05:11:42;10.17;;;8.47;;
11048;SDS011;5577;42.706;23.160;2023-05-10T05:14:26;10.83;;;8.23;;
11048;SDS011;5577;42.706;23.160;2023-05-10T05:17:09;9.43;;;7.60;;
11048;SDS011;5577;42.706;23.160;2023-05-10T05:19:53;13.73;;;8.43;;
11048;SDS011;5577;42.706;23.160;2023-05-10T05:22:37;12.10;;;8.13;;
11048;SDS011;5577;42.706;23.160;2023-05-10T05:25:22;10.30;;;8.37;;
11048;SDS011;5577;42.706;23.160;2023-05-10T05:28:06;11.47;;;8.93;;
11048;SDS011;5577;42.706;23.160;2023-05-10T05:30:50;9.67;;;8.37;;
11048;SDS011;5577;42.706;23.160;2023-05-10T05:33:34;9.90;;;8.47;;
11048;SDS011;5577;42.706;23.160;2023-05-10T05:36:18;11.00;;;9.17;;
11048;SDS011;5577;42.706;23.160;2023-05-10T05:39:02;10.77;;;9.00;;
11048;SDS011;5577;42.706;23.160;2023-05-10T05:41:46;14.13;;;9.50;;
11048;SDS011;5577;42.706;23.160;2023-05-10T05:44:30;12.27;;;9.07;;
11048;SDS011;5577;42.706;23.160;2023-05-10T05:47:14;15.77;;;10.17;;
11048;SDS011;5577;42.706;23.160;2023-05-10T05:49:58;11.43;;;9.27;;
11048;SDS011;5577;42.706;23.160;2023-05-10T05:52:42;11.67;;;9.43;;
11048;SDS011;5577;42.706;23.160;2023-05-10T05:55:26;13.13;;;10.17;;
11048;SDS011;5577;42.706;23.160;2023-05-10T05:58:10;11.10;;;9.23;;
11048;SDS011;5577;42.706;23.160;2023-05-10T06:00:54;13.83;;;10.23;;
11048;SDS011;5577;42.706;23.160;2023-05-10T06:03:38;12.70;;;10.27;;
11048;SDS011;5577;42.706;23.160;2023-05-10T06:06:22;14.07;;;10.53;;
11048;SDS011;5577;42.706;23.160;2023-05-10T06:09:06;13.87;;;10.43;;
11048;SDS011;5577;42.706;23.160;2023-05-10T06:11:50;14.93;;;10.97;;
11048;SDS011;5577;42.706;23.160;2023-05-10T06:14:33;16.63;;;10.73;;
11048;SDS011;5577;42.706;23.160;2023-05-10T06:17:17;16.57;;;11.50;;
11048;SDS011;5577;42.706;23.160;2023-05-10T06:20:02;15.13;;;10.97;;
11048;SDS011;5577;42.706;23.160;2023-05-10T06:22:46;14.20;;;11.37;;
11048;SDS011;5577;42.706;23.160;2023-05-10T06:25:30;14.60;;;11.33;;
11048;SDS011;5577;42.706;23.160;2023-05-10T06:28:14;15.17;;;11.33;;
11048;SDS011;5577;42.706;23.160;2023-05-10T06:30:58;13.87;;;11.00;;
11048;SDS011;5577;42.706;23.160;2023-05-10T06:33:42;16.27;;;11.40;;
11048;SDS011;5577;42.706;23.160;2023-05-10T06:36:26;16.83;;;11.37;;
11048;SDS011;5577;42.706;23.160;2023-05-10T06:39:10;16.37;;;11.50;;
11048;SDS011;5577;42.706;23.160;2023-05-10T06:41:55;19.23;;;13.17;;
11048;SDS011;5577;42.706;23.160;2023-05-10T06:44:39;16.40;;;12.20;;
11048;SDS011;5577;42.706;23.160;2023-05-10T06:47:23;18.73;;;12.40;;
11048;SDS011;5577;42.706;23.160;2023-05-10T06:50:07;14.97;;;11.13;;
11048;SDS011;5577;42.706;23.160;2023-05-10T06:52:52;16.10;;;12.03;;
11048;SDS011;5577;42.706;23.160;2023-05-10T06:55:36;15.20;;;11.30;;
11048;SDS011;5577;42.706;23.160;2023-05-10T06:58:20;14.73;;;10.93;;
11048;SDS011;5577;42.706;23.160;2023-05-10T07:01:04;14.30;;;11.60;;
11048;SDS011;5577;42.706;23.160;2023-05-10T07:03:48;14.90;;;11.40;;
11048;SDS011;5577;42.706;23.160;2023-05-10T07:06:32;16.43;;;11.40;;
11048;SDS011;5577;42.706;23.160;2023-05-10T07:09:16;16.33;;;11.87;;
11048;SDS011;5577;42.706;23.160;2023-05-10T07:12:00;17.90;;;11.50;;
11048;SDS011;5577;42.706;23.160;2023-05-10T07:14:45;15.27;;;11.10;;
11048;SDS011;5577;42.706;23.160;2023-05-10T07:17:30;13.57;;;10.53;;
11048;SDS011;5577;42.706;23.160;2023-05-10T07:20:14;17.33;;;12.03;;
11048;SDS011;5577;42.706;23.160;2023-05-10T07:22:58;17.00;;;11.53;;
11048;SDS011;5577;42.706;23.160;2023-05-10T07:25:42;13.80;;;10.63;;
11048;SDS011;5577;42.706;23.160;2023-05-10T07:28:31;18.00;;;11.37;;
11048;SDS011;5577;42.706;23.160;2023-05-10T07:31:15;15.23;;;11.57;;
11048;SDS011;5577;42.706;23.160;2023-05-10T07:33:59;15.23;;;10.27;;
11048;SDS011;5577;42.706;23.160;2023-05-10T07:36:43;14.33;;;10.60;;
11048;SDS011;5577;42.706;23.160;2023-05-10T07:39:27;14.23;;;10.30;;
11048;SDS011;5577;42.706;23.160;2023-05-10T07:42:11;17.17;;;11.27;;
11048;SDS011;5577;42.706;23.160;2023-05-10T07:44:55;15.53;;;11.33;;
11048;SDS011;5577;42.706;23.160;2023-05-10T07:47:39;12.77;;;10.03;;
11048;SDS011;5577;42.706;23.160;2023-05-10T07:50:23;13.23;;;10.27;;
11048;SDS011;5577;42.706;23.160;2023-05-10T07:53:07;13.93;;;10.17;;
11048;SDS011;5577;42.706;23.160;2023-05-10T07:55:51;14.27;;;10.77;;
11048;SDS011;5577;42.706;23.160;2023-05-10T07:58:40;14.30;;;10.77;;
11048;SDS011;5577;42.706;23.160;2023-05-10T08:01:24;12.30;;;10.33;;
11048;SDS011;5577;42.706;23.160;2023-05-10T08:04:09;14.77;;;10.87;;
11048;SDS011;5577;42.706;23.160;2023-05-10T08:06:53;13.77;;;10.60;;
11048;SDS011;5577;42.706;23.160;2023-05-10T08:09:37;14.33;;;11.10;;
11048;SDS011;5577;42.706;23.160;2023-05-10T08:12:21;13.87;;;10.23;;
11048;SDS011;5577;42.706;23.160;2023-05-10T08:15:05;12.47;;;10.13;;
11048;SDS011;5577;42.706;23.160;2023-05-10T08:17:53;12.97;;;10.77;;
11048;SDS011;5577;42.706;23.160;2023-05-10T08:20:38;13.57;;;10.47;;
11048;SDS011;5577;42.706;23.160;2023-05-10T08:23:22;16.03;;;12.20;;
11048;SDS011;5577;42.706;23.160;2023-05-10T08:26:06;14.60;;;11.60;;
11048;SDS011;5577;42.706;23.160;2023-05-10T08:28:49;15.33;;;11.97;;
11048;SDS011;5577;42.706;23.160;2023-05-10T08:31:33;13.67;;;10.90;;
11048;SDS011;5577;42.706;23.160;2023-05-10T08:34:17;14.77;;;11.47;;
11048;SDS011;5577;42.706;23.160;2023-05-10T08:37:01;17.33;;;11.77;;
11048;SDS011;5577;42.706;23.160;2023-05-10T08:39:45;14.53;;;11.80;;
11048;SDS011;5577;42.706;23.160;2023-05-10T08:42:32;15.37;;;11.27;;
11048;SDS011;5577;42.706;23.160;2023-05-10T09:50:23;12.20;;;10.93;;
11048;SDS011;5577;42.706;23.160;2023-05-10T09:53:07;13.03;;;10.70;;
11048;SDS011;5577;42.706;23.160;2023-05-10T09:55:51;12.77;;;10.73;;
11048;SDS011;5577;42.706;23.160;2023-05-10T09:58:38;13.53;;;10.47;;
11048;SDS011;5577;42.706;23.160;2023-05-10T10:01:25;12.83;;;11.37;;
11048;SDS011;5577;42.706;23.160;2023-05-10T10:04:09;11.07;;;9.57;;
11048;SDS011;5577;42.706;23.160;2023-05-10T10:07:01;12.10;;;10.90;;
11048;SDS011;5577;42.706;23.160;2023-05-10T10:09:47;12.27;;;10.97;;
11048;SDS011;5577;42.706;23.160;2023-05-10T10:12:31;11.93;;;10.03;;
11048;SDS011;5577;42.706;23.160;2023-05-10T10:15:15;12.50;;;11.20;;
11048;SDS011;5577;42.706;23.160;2023-05-10T10:18:00;13.40;;;11.17;;
11048;SDS011;5577;42.706;23.160;2023-05-10T10:20:47;13.87;;;11.87;;
11048;SDS011;5577;42.706;23.160;2023-05-10T10:23:31;12.80;;;10.50;;
11048;SDS011;5577;42.706;23.160;2023-05-10T10:26:15;11.40;;;10.30;;
11048;SDS011;5577;42.706;23.160;2023-05-10T10:29:16;11.50;;;10.13;;
11048;SDS011;5577;42.706;23.160;2023-05-10T10:35:16;12.33;;;11.13;;
11048;SDS011;5577;42.706;23.160;2023-05-10T10:38:01;12.80;;;11.50;;
11048;SDS011;5577;42.706;23.160;2023-05-10T10:40:45;12.40;;;11.10;;
11048;SDS011;5577;42.706;23.160;2023-05-10T10:43:29;11.83;;;10.67;;
11048;SDS011;5577;42.706;23.160;2023-05-10T10:46:14;10.90;;;9.80;;
11048;SDS011;5577;42.706;23.160;2023-05-10T10:49:09;11.43;;;10.33;;
11048;SDS011;5577;42.706;23.160;2023-05-10T10:55:03;11.40;;;10.30;;
11048;SDS011;5577;42.706;23.160;2023-05-10T10:57:52;11.17;;;10.07;;
11048;SDS011;5577;42.706;23.160;2023-05-10T11:00:44;12.80;;;10.07;;
11048;SDS011;5577;42.706;23.160;2023-05-10T11:03:29;16.07;;;10.53;;
11048;SDS011;5577;42.706;23.160;2023-05-10T11:06:13;12.37;;;10.30;;
11048;SDS011;5577;42.706;23.160;2023-05-10T11:09:12;12.43;;;11.23;;
11048;SDS011;5577;42.706;23.160;2023-05-10T11:11:56;11.27;;;10.17;;
11048;SDS011;5577;42.706;23.160;2023-05-10T11:14:41;12.80;;;9.40;;
11048;SDS011;5577;42.706;23.160;2023-05-10T11:17:26;10.83;;;9.13;;
11048;SDS011;5577;42.706;23.160;2023-05-10T11:20:15;12.17;;;9.57;;
11048;SDS011;5577;42.706;23.160;2023-05-10T11:23:12;12.07;;;9.63;;
11048;SDS011;5577;42.706;23.160;2023-05-10T11:26:01;11.23;;;10.13;;
11048;SDS011;5577;42.706;23.160;2023-05-10T11:28:46;10.33;;;9.27;;
11048;SDS011;5577;42.706;23.160;2023-05-10T11:31:31;11.97;;;10.73;;
11048;SDS011;5577;42.706;23.160;2023-05-10T11:34:37;12.57;;;9.63;;
11048;SDS011;5577;42.706;23.160;2023-05-10T11:37:20;10.90;;;9.80;;
11048;SDS011;5577;42.706;23.160;2023-05-10T11:40:04;12.23;;;9.73;;
11048;SDS011;5577;42.706;23.160;2023-05-10T11:42:48;11.00;;;9.90;;
11048;SDS011;5577;42.706;23.160;2023-05-10T11:45:32;10.23;;;8.97;;
11048;SDS011;5577;42.706;23.160;2023-05-10T11:48:17;12.03;;;9.50;;
11048;SDS011;5577;42.706;23.160;2023-05-10T11:51:06;11.87;;;10.13;;
11048;SDS011;5577;42.706;23.160;2023-05-10T11:53:55;11.77;;;10.57;;
11048;SDS011;5577;42.706;23.160;2023-05-10T11:56:40;10.53;;;9.50;;
11048;SDS011;5577;42.706;23.160;2023-05-10T11:59:25;11.77;;;9.13;;
11048;SDS011;5577;42.706;23.160;2023-05-10T12:02:09;10.80;;;8.83;;
11048;SDS011;5577;42.706;23.160;2023-05-10T12:04:54;9.87;;;8.87;;
11048;SDS011;5577;42.706;23.160;2023-05-10T12:07:39;9.33;;;8.33;;
11048;SDS011;5577;42.706;23.160;2023-05-10T12:10:26;10.60;;;9.50;;
11048;SDS011;5577;42.706;23.160;2023-05-10T12:13:11;12.23;;;9.50;;
11048;SDS011;5577;42.706;23.160;2023-05-10T12:15:59;10.67;;;9.57;;
11048;SDS011;5577;42.706;23.160;2023-05-10T12:18:56;10.10;;;9.10;;
11048;SDS011;5577;42.706;23.160;2023-05-10T12:21:41;10.73;;;9.13;;
11048;SDS011;5577;42.706;23.160;2023-05-10T12:24:27;13.23;;;9.47;;
11048;SDS011;5577;42.706;23.160;2023-05-10T12:27:11;11.90;;;9.70;;
11048;SDS011;5577;42.706;23.160;2023-05-10T12:29:58;11.73;;;9.40;;
11048;SDS011;5577;42.706;23.160;2023-05-10T12:32:43;11.30;;;10.20;;
11048;SDS011;5577;42.706;23.160;2023-05-10T12:35:31;12.77;;;10.00;;
11048;SDS011;5577;42.706;23.160;2023-05-10T12:41:21;12.20;;;10.30;;
11048;SDS011;5577;42.706;23.160;2023-05-10T12:44:04;11.93;;;10.53;;
11048;SDS011;5577;42.706;23.160;2023-05-10T12:46:48;11.70;;;10.00;;
11048;SDS011;5577;42.706;23.160;2023-05-10T12:49:33;14.77;;;10.47;;
11048;SDS011;5577;42.706;23.160;2023-05-10T12:52:17;12.10;;;10.30;;
11048;SDS011;5577;42.706;23.160;2023-05-10T12:55:01;12.57;;;9.63;;
11048;SDS011;5577;42.706;23.160;2023-05-10T12:57:46;11.60;;;10.40;;
11048;SDS011;5577;42.706;23.160;2023-05-10T13:00:30;14.47;;;11.17;;
11048;SDS011;5577;42.706;23.160;2023-05-10T13:03:14;14.50;;;10.53;;
11048;SDS011;5577;42.706;23.160;2023-05-10T13:05:59;16.37;;;12.60;;
11048;SDS011;5577;42.706;23.160;2023-05-10T13:08:43;12.70;;;9.53;;
11048;SDS011;5577;42.706;23.160;2023-05-10T13:11:27;14.43;;;10.60;;
11048;SDS011;5577;42.706;23.160;2023-05-10T13:14:11;12.40;;;10.03;;
11048;SDS011;5577;42.706;23.160;2023-05-10T13:16:55;11.30;;;10.10;;
11048;SDS011;5577;42.706;23.160;2023-05-10T13:19:39;11.40;;;10.20;;
11048;SDS011;5577;42.706;23.160;2023-05-10T13:22:22;12.47;;;9.80;;
11048;SDS011;5577;42.706;23.160;2023-05-10T13:25:07;12.53;;;10.17;;
11048;SDS011;5577;42.706;23.160;2023-05-10T13:27:51;12.07;;;10.37;;
11048;SDS011;5577;42.706;23.160;2023-05-10T13:30:35;12.83;;;10.23;;
11048;SDS011;5577;42.706;23.160;2023-05-10T13:33:19;11.67;;;9.47;;
11048;SDS011;5577;42.706;23.160;2023-05-10T13:36:03;11.03;;;9.80;;
11048;SDS011;5577;42.706;23.160;2023-05-10T13:38:47;13.07;;;10.37;;
11048;SDS011;5577;42.706;23.160;2023-05-10T13:41:31;11.63;;;9.53;;
11048;SDS011;5577;42.706;23.160;2023-05-10T13:44:16;11.00;;;9.60;;
11048;SDS011;5577;42.706;23.160;2023-05-10T13:47:00;12.57;;;11.07;;
11048;SDS011;5577;42.706;23.160;2023-05-10T13:49:43;10.80;;;9.57;;
11048;SDS011;5577;42.706;23.160;2023-05-10T13:52:27;9.87;;;8.87;;
11048;SDS011;5577;42.706;23.160;2023-05-10T13:55:12;10.53;;;9.40;;
11048;SDS011;5577;42.706;23.160;2023-05-10T13:57:56;13.27;;;9.30;;
11048;SDS011;5577;42.706;23.160;2023-05-10T14:00:41;10.73;;;9.63;;
11048;SDS011;5577;42.706;23.160;2023-05-10T14:03:25;11.07;;;9.93;;
11048;SDS011;5577;42.706;23.160;2023-05-10T14:06:09;10.43;;;8.93;;
11048;SDS011;5577;42.706;23.160;2023-05-10T14:08:53;10.23;;;9.10;;
11048;SDS011;5577;42.706;23.160;2023-05-10T14:11:37;11.70;;;9.43;;
11048;SDS011;5577;42.706;23.160;2023-05-10T14:14:25;13.90;;;10.23;;
11048;SDS011;5577;42.706;23.160;2023-05-10T14:17:09;16.73;;;12.43;;
11048;SDS011;5577;42.706;23.160;2023-05-10T14:19:53;12.37;;;10.27;;
11048;SDS011;5577;42.706;23.160;2023-05-10T14:22:38;14.13;;;9.47;;
11048;SDS011;5577;42.706;23.160;2023-05-10T14:25:21;14.63;;;10.60;;
11048;SDS011;5577;42.706;23.160;2023-05-10T14:28:06;10.53;;;9.20;;
11048;SDS011;5577;42.706;23.160;2023-05-10T14:30:51;11.37;;;9.70;;
11048;SDS011;5577;42.706;23.160;2023-05-10T14:33:35;12.23;;;9.47;;
11048;SDS011;5577;42.706;23.160;2023-05-10T14:36:19;13.50;;;10.23;;
11048;SDS011;5577;42.706;23.160;2023-05-10T14:39:02;10.23;;;9.10;;
11048;SDS011;5577;42.706;23.160;2023-05-10T14:41:47;12.80;;;9.63;;
11048;SDS011;5577;42.706;23.160;2023-05-10T14:44:31;12.83;;;9.80;;
11048;SDS011;5577;42.706;23.160;2023-05-10T14:47:15;13.17;;;10.30;;
11048;SDS011;5577;42.706;23.160;2023-05-10T14:49:58;12.13;;;10.30;;
11048;SDS011;5577;42.706;23.160;2023-05-10T14:52:42;13.40;;;10.70;;
11048;SDS011;5577;42.706;23.160;2023-05-10T14:55:27;12.70;;;10.60;;
11048;SDS011;5577;42.706;23.160;2023-05-10T14:58:11;11.83;;;10.07;;
11048;SDS011;5577;42.706;23.160;2023-05-10T15:00:55;11.27;;;9.93;;
11048;SDS011;5577;42.706;23.160;2023-05-10T15:03:38;13.37;;;10.30;;
11048;SDS011;5577;42.706;23.160;2023-05-10T15:06:23;13.17;;;10.10;;
11048;SDS011;5577;42.706;23.160;2023-05-10T15:09:14;12.77;;;10.77;;
11048;SDS011;5577;42.706;23.160;2023-05-10T15:11:58;15.10;;;10.47;;
11048;SDS011;5577;42.706;23.160;2023-05-10T15:14:42;13.10;;;10.60;;
11048;SDS011;5577;42.706;23.160;2023-05-10T15:17:27;12.37;;;11.07;;
11048;SDS011;5577;42.706;23.160;2023-05-10T15:20:11;13.17;;;10.13;;
11048;SDS011;5577;42.706;23.160;2023-05-10T15:22:55;13.90;;;10.33;;
11048;SDS011;5577;42.706;23.160;2023-05-10T15:25:39;10.73;;;9.63;;
11048;SDS011;5577;42.706;23.160;2023-05-10T15:28:23;12.63;;;10.17;;
11048;SDS011;5577;42.706;23.160;2023-05-10T15:31:07;10.30;;;8.87;;
11048;SDS011;5577;42.706;23.160;2023-05-10T15:33:51;10.47;;;9.07;;
11048;SDS011;5577;42.706;23.160;2023-05-10T15:36:35;11.10;;;9.63;;
11048;SDS011;5577;42.706;23.160;2023-05-10T15:39:19;12.13;;;9.47;;
11048;SDS011;5577;42.706;23.160;2023-05-10T15:42:03;13.17;;;9.67;;
11048;SDS011;5577;42.706;23.160;2023-05-10T15:44:47;11.87;;;9.77;;
11048;SDS011;5577;42.706;23.160;2023-05-10T15:47:33;11.57;;;9.37;;
11048;SDS011;5577;42.706;23.160;2023-05-10T15:50:17;11.33;;;9.97;;
11048;SDS011;5577;42.706;23.160;2023-05-10T15:53:02;11.13;;;9.57;;
11048;SDS011;5577;42.706;23.160;2023-05-10T15:55:46;12.00;;;9.90;;
11048;SDS011;5577;42.706;23.160;2023-05-10T15:58:30;10.93;;;9.83;;
11048;SDS011;5577;42.706;23.160;2023-05-10T16:01:14;11.87;;;9.87;;
11048;SDS011;5577;42.706;23.160;2023-05-10T16:03:57;13.13;;;10.53;;
11048;SDS011;5577;42.706;23.160;2023-05-10T16:06:41;14.70;;;10.27;;
11048;SDS011;5577;42.706;23.160;2023-05-10T16:09:25;11.13;;;9.93;;
11048;SDS011;5577;42.706;23.160;2023-05-10T16:12:09;11.53;;;10.13;;
11048;SDS011;5577;42.706;23.160;2023-05-10T16:14:53;13.43;;;10.30;;
11048;SDS011;5577;42.706;23.160;2023-05-10T16:17:37;12.07;;;9.97;;
11048;SDS011;5577;42.706;23.160;2023-05-10T16:20:21;11.47;;;9.87;;
11048;SDS011;5577;42.706;23.160;2023-05-10T16:23:07;12.13;;;10.23;;
11048;SDS011;5577;42.706;23.160;2023-05-10T16:25:51;11.40;;;9.73;;
11048;SDS011;5577;42.706;23.160;2023-05-10T16:28:35;13.70;;;9.50;;
11048;SDS011;5577;42.706;23.160;2023-05-10T16:31:20;11.80;;;9.13;;
11048;SDS011;5577;42.706;23.160;2023-05-10T16:34:03;12.53;;;10.17;;
11048;SDS011;5577;42.706;23.160;2023-05-10T16:36:48;14.10;;;10.10;;
11048;SDS011;5577;42.706;23.160;2023-05-10T16:39:31;12.30;;;10.27;;
11048;SDS011;5577;42.706;23.160;2023-05-10T16:42:15;15.23;;;11.40;;
11048;SDS011;5577;42.706;23.160;2023-05-10T16:45:00;14.37;;;10.97;;
11048;SDS011;5577;42.706;23.160;2023-05-10T16:47:50;12.33;;;10.17;;
11048;SDS011;5577;42.706;23.160;2023-05-10T16:50:36;14.20;;;10.03;;
11048;SDS011;5577;42.706;23.160;2023-05-10T16:53:20;11.17;;;9.97;;
11048;SDS011;5577;42.706;23.160;2023-05-10T16:56:04;10.70;;;9.60;;
11048;SDS011;5577;42.706;23.160;2023-05-10T16:58:49;12.20;;;9.93;;
11048;SDS011;5577;42.706;23.160;2023-05-10T17:01:32;13.63;;;9.93;;
11048;SDS011;5577;42.706;23.160;2023-05-10T17:04:16;10.57;;;9.33;;
11048;SDS011;5577;42.706;23.160;2023-05-10T17:07:00;11.83;;;10.50;;
11048;SDS011;5577;42.706;23.160;2023-05-10T17:09:45;12.17;;;10.50;;
11048;SDS011;5577;42.706;23.160;2023-05-10T17:12:29;12.77;;;10.67;;
11048;SDS011;5577;42.706;23.160;2023-05-10T17:15:13;13.77;;;11.13;;
11048;SDS011;5577;42.706;23.160;2023-05-10T17:17:58;11.87;;;9.90;;
11048;SDS011;5577;42.706;23.160;2023-05-10T17:20:43;13.80;;;10.23;;
11048;SDS011;5577;42.706;23.160;2023-05-10T17:23:27;14.53;;;10.73;;
11048;SDS011;5577;42.706;23.160;2023-05-10T17:26:12;14.07;;;11.50;;
11048;SDS011;5577;42.706;23.160;2023-05-10T17:28:56;10.93;;;9.53;;
11048;SDS011;5577;42.706;23.160;2023-05-10T17:31:40;16.37;;;11.60;;
11048;SDS011;5577;42.706;23.160;2023-05-10T17:34:24;13.83;;;9.90;;
11048;SDS011;5577;42.706;23.160;2023-05-10T17:37:08;11.93;;;10.73;;
11048;SDS011;5577;42.706;23.160;2023-05-10T17:39:52;13.20;;;10.80;;
11048;SDS011;5577;42.706;23.160;2023-05-10T17:42:36;12.80;;;9.90;;